Time;durP1;ratioP1;P1;durP2;ratioP2;P2;SDS_P1;SDS_P2;PMS_P1;PMS_P2;Temp;Humidity;BMP_temperature;BMP_pressure;BME280_temperature;BME280_humidity;BME280_pressure;Samples;Min_cycle;Max_cycle;Signal;HPM_P1;HPM_P2
2022/10/17 00:01:46;;;;;;;54.17;32.85;;;15.50;79.60;;;;;;5096078;28;20070;-12
2022/10/17 00:04:12;;;;;;;76.95;42.67;;;15.50;79.80;;;;;;5096095;28;20039;-11
2022/10/17 00:06:38;;;;;;;64.47;35.80;;;15.50;79.70;;;;;;5095635;28;20440;-12
2022/10/17 00:09:04;;;;;;;59.72;33.60;;;15.60;79.60;;;;;;5095876;28;20028;-13
2022/10/17 00:11:30;;;;;;;57.85;33.42;;;15.60;79.80;;;;;;5095547;28;20556;-13
2022/10/17 00:13:56;;;;;;;66.20;37.05;;;15.60;79.80;;;;;;5095543;28;20111;-12
2022/10/17 00:16:28;;;;;;;65.40;39.33;;;15.60;80.00;;;;;;5095855;28;20069;-12
2022/10/17 00:18:54;;;;;;;61.90;34.75;;;15.70;79.80;;;;;;5095985;28;20368;-12
2022/10/17 00:21:22;;;;;;;57.00;34.30;;;15.70;79.70;;;;;;5095417;28;20503;-12
2022/10/17 00:23:49;;;;;;;58.83;34.33;;;15.70;80.00;;;;;;5095404;28;20069;-12
2022/10/17 00:26:16;;;;;;;54.40;33.80;;;15.70;80.00;;;;;;5095478;28;20050;-12
2022/10/17 00:28:45;;;;;;;55.85;33.75;;;15.70;80.00;;;;;;5095377;28;20384;-13
2022/10/17 00:31:11;;;;;;;64.20;35.05;;;15.70;79.80;;;;;;5095947;28;20481;-13
2022/10/17 00:33:38;;;;;;;55.47;33.22;;;15.70;79.90;;;;;;5095199;28;20060;-13
2022/10/17 00:36:07;;;;;;;60.65;35.15;;;15.80;80.00;;;;;;5095191;28;20036;-13
2022/10/17 00:38:33;;;;;;;67.40;37.33;;;15.80;79.90;;;;;;5094496;28;20035;-13
2022/10/17 00:40:59;;;;;;;54.55;33.42;;;15.80;80.00;;;;;;5093774;28;20032;-13
2022/10/17 00:43:25;;;;;;;62.75;35.20;;;15.80;79.90;;;;;;5095075;28;20024;-13
2022/10/17 00:45:51;;;;;;;53.60;33.65;;;15.80;79.90;;;;;;5095283;28;20063;-14
2022/10/17 00:48:18;;;;;;;60.38;36.63;;;15.70;79.90;;;;;;5095041;28;20507;-13
2022/10/17 00:50:49;;;;;;;57.85;34.50;;;15.70;80.10;;;;;;5095124;28;20090;-12
2022/10/17 00:53:17;;;;;;;75.40;40.85;;;15.70;79.90;;;;;;5094681;28;20028;-12
2022/10/17 00:55:52;;;;;;;62.00;36.10;;;15.70;80.00;;;;;;5095157;28;20027;-12
2022/10/17 00:58:19;;;;;;;62.70;36.72;;;15.60;80.00;;;;;;5094749;28;20032;-12
2022/10/17 01:00:47;;;;;;;55.38;33.30;;;15.60;80.10;;;;;;5094714;28;20031;-13
2022/10/17 01:03:13;;;;;;;52.53;31.67;;;15.60;80.10;;;;;;5094672;28;20031;-12
2022/10/17 01:05:41;;;;;;;61.15;34.80;;;15.60;80.10;;;;;;5094578;28;20084;-13
2022/10/17 01:08:08;;;;;;;65.63;37.33;;;15.50;80.10;;;;;;5094802;28;20024;-13
2022/10/17 01:11:00;;;;;;;62.58;35.90;;;15.50;80.30;;;;;;5094551;28;20457;-13
2022/10/17 01:13:32;;;;;;;54.58;32.13;;;15.50;80.30;;;;;;5094476;28;20035;-13
2022/10/17 01:16:13;;;;;;;53.80;30.70;;;15.40;80.20;;;;;;5094471;28;20449;-13
2022/10/17 01:18:48;;;;;;;62.58;36.97;;;15.40;80.20;;;;;;5095338;28;20024;-14
2022/10/17 01:21:26;;;;;;;60.17;35.10;;;15.40;80.30;;;;;;5094556;28;20414;-12
2022/10/17 01:24:30;;;;;;;60.80;32.85;;;15.30;80.50;;;;;;5094351;28;20534;-12
2022/10/17 01:27:35;;;;;;;50.78;29.42;;;15.30;80.40;;;;;;5094681;28;20104;-12
2022/10/17 01:30:42;;;;;;;54.22;31.10;;;15.30;80.40;;;;;;5094572;28;20051;-13
2022/10/17 01:33:29;;;;;;;62.90;33.95;;;15.20;80.40;;;;;;5095003;28;20414;-12
2022/10/17 01:36:07;;;;;;;61.95;34.20;;;15.20;80.40;;;;;;5094930;28;20043;-12
2022/10/17 01:38:45;;;;;;;53.40;32.05;;;15.20;80.40;;;;;;5094350;28;20055;-13
2022/10/17 01:41:43;;;;;;;50.35;31.60;;;15.20;80.30;;;;;;5093834;28;20475;-12
2022/10/17 01:44:32;;;;;;;53.30;31.80;;;15.20;80.40;;;;;;5089626;28;20024;-12
2022/10/17 01:47:05;;;;;;;53.38;31.58;;;15.20;80.40;;;;;;5093687;28;20477;-12
2022/10/17 01:49:33;;;;;;;;;;;15.20;80.50;;;;;;5094141;28;20459;-12
2022/10/17 01:52:08;;;;;;;65.38;36.63;;;15.20;80.60;;;;;;5093598;28;19904;-13
2022/10/17 01:55:01;;;;;;;72.45;40.28;;;15.10;80.40;;;;;;5094123;28;20025;-13
2022/10/17 01:57:48;;;;;;;59.67;34.78;;;15.10;80.30;;;;;;5094044;28;20125;-13
2022/10/17 02:00:18;;;;;;;71.28;38.70;;;15.10;80.40;;;;;;5093955;28;20051;-13
2022/10/17 02:02:48;;;;;;;52.20;31.42;;;15.10;80.60;;;;;;5093993;28;20032;-13
2022/10/17 02:05:18;;;;;;;54.22;33.10;;;15.00;80.60;;;;;;5093849;28;20036;-12
2022/10/17 02:07:44;;;;;;;51.85;30.80;;;15.00;80.50;;;;;;5093413;28;20035;-13
2022/10/17 02:10:19;;;;;;;54.67;31.52;;;14.90;80.50;;;;;;5093226;28;20032;-13
2022/10/17 02:13:08;;;;;;;53.75;32.90;;;14.90;80.50;;;;;;5093539;28;20032;-13
2022/10/17 02:16:06;;;;;;;57.03;33.08;;;14.90;80.60;;;;;;5093690;28;20470;-13
2022/10/17 02:19:14;;;;;;;56.53;32.30;;;14.90;80.70;;;;;;5093371;28;20039;-13
2022/10/17 02:22:31;;;;;;;51.05;30.02;;;14.80;80.70;;;;;;5093588;28;20036;-13
2022/10/17 02:25:13;;;;;;;44.13;27.58;;;14.70;80.70;;;;;;5030864;28;20481;-13
2022/10/17 02:27:39;;;;;;;31.75;21.40;;;14.70;80.70;;;;;;5031097;28;20034;-13
2022/10/17 02:30:34;;;;;;;37.70;24.40;;;14.60;80.70;;;;;;5031023;28;20040;-12
2022/10/17 02:33:12;;;;;;;44.97;28.30;;;14.60;80.80;;;;;;5024468;28;20041;-13
2022/10/17 02:35:44;;;;;;;42.25;27.35;;;14.60;80.90;;;;;;5031139;28;20175;-13
2022/10/17 02:38:12;;;;;;;42.30;26.73;;;14.60;80.80;;;;;;5030935;28;20030;-13
2022/10/17 02:40:40;;;;;;;45.80;28.02;;;14.50;80.80;;;;;;5031107;28;20132;-12
2022/10/17 02:43:06;;;;;;;46.75;28.25;;;14.40;80.80;;;;;;5030705;28;20064;-12
2022/10/17 02:45:35;;;;;;;45.60;27.75;;;14.40;80.90;;;;;;5030888;28;20501;-13
2022/10/17 02:48:19;;;;;;;43.92;29.08;;;14.40;80.90;;;;;;5031015;28;20115;-12
2022/10/17 02:51:20;;;;;;;51.75;29.00;;;14.40;80.90;;;;;;5030951;28;20025;-13
2022/10/17 02:54:00;;;;;;;48.00;29.02;;;14.40;80.90;;;;;;5031467;28;20048;-13
2022/10/17 02:56:30;;;;;;;50.80;31.67;;;14.40;80.80;;;;;;5030801;28;20033;-12
2022/10/17 02:58:58;;;;;;;56.15;31.55;;;14.40;80.90;;;;;;5030419;28;20087;-13
2022/10/17 03:01:25;;;;;;;53.83;30.67;;;14.40;80.80;;;;;;5086048;28;20035;-12
2022/10/17 03:04:02;;;;;;;58.42;32.30;;;14.40;80.80;;;;;;5096971;28;20507;-12
2022/10/17 03:06:28;;;;;;;54.85;31.55;;;14.30;80.90;;;;;;5097258;28;20379;-12
2022/10/17 03:08:54;;;;;;;49.20;29.75;;;14.30;81.00;;;;;;5096705;28;20024;-12
2022/10/17 03:11:20;;;;;;;41.40;26.63;;;14.20;81.00;;;;;;5096777;28;20052;-13
2022/10/17 03:13:46;;;;;;;40.60;25.17;;;14.20;81.00;;;;;;5096740;28;20498;-13
2022/10/17 03:16:12;;;;;;;43.25;26.80;;;14.10;81.10;;;;;;5097062;28;20039;-12
2022/10/17 03:18:38;;;;;;;46.20;27.90;;;14.10;80.90;;;;;;5097044;28;20502;-13
2022/10/17 03:21:04;;;;;;;46.45;26.83;;;14.00;81.00;;;;;;5096505;28;20028;-13
2022/10/17 03:23:30;;;;;;;55.25;30.77;;;14.00;80.90;;;;;;5096450;28;20020;-13
2022/10/17 03:25:56;;;;;;;49.97;29.17;;;14.00;81.10;;;;;;5096673;28;20027;-13
2022/10/17 03:28:22;;;;;;;52.53;29.15;;;13.90;81.20;;;;;;5096553;28;20438;-12
2022/10/17 03:30:48;;;;;;;52.83;31.35;;;13.90;81.20;;;;;;5096581;28;20028;-13
2022/10/17 03:33:13;;;;;;;56.40;32.47;;;13.90;81.10;;;;;;5096654;28;20383;-13
2022/10/17 03:35:39;;;;;;;55.42;30.63;;;13.90;81.20;;;;;;5096773;28;20406;-12
2022/10/17 03:38:05;;;;;;;53.30;30.90;;;13.80;81.30;;;;;;5096263;28;20466;-13
2022/10/17 03:40:31;;;;;;;75.47;38.55;;;13.80;81.20;;;;;;5096507;28;20103;-13
2022/10/17 03:42:57;;;;;;;79.43;42.47;;;13.70;81.20;;;;;;5096013;28;20425;-13
2022/10/17 03:45:23;;;;;;;61.22;34.50;;;13.70;81.20;;;;;;5096181;28;20031;-12
2022/10/17 03:47:48;;;;;;;52.90;32.05;;;13.60;81.60;;;;;;5096117;28;20103;-12
2022/10/17 03:50:14;;;;;;;44.15;26.75;;;13.60;81.80;;;;;;5096346;28;20035;-13
2022/10/17 03:52:40;;;;;;;47.08;26.20;;;13.50;81.60;;;;;;5096215;28;20028;-12
2022/10/17 03:55:06;;;;;;;50.35;29.02;;;13.40;81.50;;;;;;5095959;28;20036;-13
2022/10/17 03:57:35;;;;;;;67.78;36.95;;;13.40;81.50;;;;;;5096354;28;20024;-13
2022/10/17 04:00:02;;;;;;;63.13;35.33;;;13.40;81.70;;;;;;5095909;28;20110;-13
2022/10/17 04:02:28;;;;;;;50.47;30.88;;;13.40;81.80;;;;;;5096397;28;20429;-13
2022/10/17 04:04:54;;;;;;;58.42;33.13;;;13.30;81.70;;;;;;5096246;28;20020;-12
2022/10/17 04:07:20;;;;;;;49.92;29.88;;;13.30;81.80;;;;;;5096043;28;20387;-12
2022/10/17 04:09:45;;;;;;;45.92;25.98;;;13.20;81.90;;;;;;5096398;28;20024;-12
2022/10/17 04:12:11;;;;;;;48.42;28.50;;;13.20;81.80;;;;;;5093720;28;20071;-12
2022/10/17 04:14:37;;;;;;;41.85;25.85;;;13.20;81.90;;;;;;5095217;28;20127;-13
2022/10/17 04:17:04;;;;;;;42.45;25.75;;;13.20;81.80;;;;;;5095352;28;20028;-12
2022/10/17 04:19:30;;;;;;;66.20;35.65;;;13.10;81.70;;;;;;5095530;28;20063;-13
2022/10/17 04:21:55;;;;;;;56.00;31.50;;;13.10;81.80;;;;;;5095733;28;20060;-12
2022/10/17 04:24:21;;;;;;;57.92;31.40;;;13.10;81.70;;;;;;5096115;28;20016;-12
2022/10/17 04:26:51;;;;;;;53.17;30.88;;;13.00;81.60;;;;;;5095241;28;20164;-13
2022/10/17 04:29:17;;;;;;;52.65;30.17;;;12.90;81.70;;;;;;5095301;28;20063;-13
2022/10/17 04:31:43;;;;;;;71.10;38.38;;;12.90;81.80;;;;;;5095652;28;20024;-13
2022/10/17 04:34:09;;;;;;;49.38;28.02;;;12.90;81.80;;;;;;5095173;28;20032;-13
2022/10/17 04:36:34;;;;;;;47.40;28.10;;;12.90;81.80;;;;;;5095124;28;20063;-14
2022/10/17 04:39:04;;;;;;;67.70;37.88;;;12.90;81.90;;;;;;5095579;28;20103;-13
2022/10/17 04:41:31;;;;;;;42.25;26.05;;;12.80;81.90;;;;;;5095139;28;20024;-14
2022/10/17 04:43:57;;;;;;;51.80;29.55;;;12.80;82.20;;;;;;5095413;28;20103;-14
2022/10/17 04:46:23;;;;;;;43.25;25.98;;;12.80;82.10;;;;;;5095033;28;20475;-12
2022/10/17 04:48:49;;;;;;;61.08;34.38;;;12.80;82.00;;;;;;5094891;28;20099;-13
2022/10/17 04:51:17;;;;;;;49.72;28.35;;;12.70;82.00;;;;;;5094986;28;20071;-13
2022/10/17 04:53:44;;;;;;;55.83;29.33;;;12.70;82.10;;;;;;5094831;28;20020;-13
2022/10/17 04:56:14;;;;;;;44.75;26.33;;;12.70;82.30;;;;;;5095171;28;20115;-13
2022/10/17 04:58:41;;;;;;;50.03;28.70;;;12.60;82.10;;;;;;5094915;28;20016;-13
2022/10/17 05:01:13;;;;;;;50.60;28.83;;;12.60;82.10;;;;;;5094511;28;20036;-13
2022/10/17 05:03:39;;;;;;;42.47;25.42;;;12.60;82.20;;;;;;5095606;28;20038;-13
2022/10/17 05:06:08;;;;;;;55.83;33.13;;;12.60;82.10;;;;;;5094986;28;20016;-14
2022/10/17 05:08:34;;;;;;;49.63;27.95;;;12.50;82.20;;;;;;5094649;28;20111;-13
2022/10/17 05:11:01;;;;;;;54.42;30.50;;;12.50;82.20;;;;;;5094359;28;20075;-12
2022/10/17 05:13:27;;;;;;;52.58;28.02;;;12.50;82.20;;;;;;5094753;28;20020;-13
2022/10/17 05:15:53;;;;;;;48.58;26.83;;;12.50;82.10;;;;;;5094375;28;20518;-13
2022/10/17 05:18:19;;;;;;;49.92;28.15;;;12.50;82.20;;;;;;5094675;28;20028;-13
2022/10/17 05:20:45;;;;;;;56.53;29.60;;;12.50;82.20;;;;;;5094712;28;20039;-14
2022/10/17 05:23:11;;;;;;;67.55;36.35;;;12.50;82.20;;;;;;5094189;28;20020;-14
2022/10/17 05:25:36;;;;;;;59.72;30.73;;;12.50;82.40;;;;;;5094181;28;20024;-13
2022/10/17 05:28:03;;;;;;;54.35;29.55;;;12.50;82.30;;;;;;5094237;28;20166;-13
2022/10/17 05:30:29;;;;;;;58.13;30.40;;;12.50;82.20;;;;;;5092964;28;20476;-12
2022/10/17 05:32:55;;;;;;;60.65;32.78;;;12.50;82.30;;;;;;5094126;28;20030;-13
2022/10/17 05:35:21;;;;;;;66.10;31.88;;;12.50;82.30;;;;;;5094752;28;20180;-13
2022/10/17 05:37:47;;;;;;;60.85;30.90;;;12.50;82.30;;;;;;5093982;28;20078;-13
2022/10/17 05:40:13;;;;;;;45.15;25.27;;;12.50;82.30;;;;;;5094850;28;20032;-13
2022/10/17 05:42:39;;;;;;;48.70;27.58;;;12.50;82.30;;;;;;5094153;28;20040;-13
2022/10/17 05:45:06;;;;;;;280.90;39.58;;;12.50;82.40;;;;;;5093829;28;20024;-13
2022/10/17 05:47:32;;;;;;;41.22;25.13;;;12.40;82.60;;;;;;5093954;28;20024;-13
2022/10/17 05:49:57;;;;;;;35.53;22.70;;;12.40;82.40;;;;;;5094140;28;20115;-13
2022/10/17 05:52:23;;;;;;;38.60;23.00;;;12.40;82.40;;;;;;5093862;28;20024;-13
2022/10/17 05:54:50;;;;;;;43.22;26.48;;;12.40;82.30;;;;;;5093717;28;20463;-14
2022/10/17 05:57:16;;;;;;;49.53;26.98;;;12.40;82.40;;;;;;5093692;28;20051;-13
2022/10/17 05:59:42;;;;;;;44.10;25.70;;;12.40;82.40;;;;;;5093992;28;20020;-13
2022/10/17 06:02:11;;;;;;;48.90;27.30;;;12.40;82.30;;;;;;5094544;28;20034;-13
2022/10/17 06:04:37;;;;;;;53.47;31.90;;;12.40;82.30;;;;;;5093848;28;20450;-13
2022/10/17 06:07:04;;;;;;;43.35;26.88;;;12.40;82.40;;;;;;5093558;28;20028;-13
2022/10/17 06:09:30;;;;;;;71.95;42.28;;;12.40;82.40;;;;;;5093890;28;20036;-12
2022/10/17 06:11:56;;;;;;;64.10;37.85;;;12.40;82.40;;;;;;5093148;28;20112;-12
2022/10/17 06:14:22;;;;;;;50.55;29.85;;;12.40;82.50;;;;;;5093690;28;20028;-14
2022/10/17 06:16:48;;;;;;;54.45;27.75;;;12.40;82.40;;;;;;5093223;28;20036;-14
2022/10/17 06:19:14;;;;;;;47.25;26.52;;;12.40;82.50;;;;;;5093389;28;20020;-13
2022/10/17 06:21:40;;;;;;;68.28;33.90;;;12.50;82.50;;;;;;5093255;28;20020;-11
2022/10/17 06:24:06;;;;;;;57.80;31.27;;;12.50;82.40;;;;;;5093665;28;20028;-12
2022/10/17 06:26:32;;;;;;;70.30;35.95;;;12.60;82.30;;;;;;5093299;28;20024;-12
2022/10/17 06:28:58;;;;;;;55.13;29.58;;;12.60;82.30;;;;;;5093297;28;20430;-12
2022/10/17 06:31:24;;;;;;;49.60;27.60;;;12.60;82.50;;;;;;5093714;28;20484;-13
2022/10/17 06:33:53;;;;;;;45.58;26.42;;;12.70;82.50;;;;;;5093451;28;20107;-13
2022/10/17 06:36:19;;;;;;;47.97;26.95;;;12.80;82.50;;;;;;5092566;28;20491;-12
2022/10/17 06:38:45;;;;;;;48.10;27.23;;;12.80;82.50;;;;;;5093374;28;20027;-12
2022/10/17 06:41:17;;;;;;;69.65;35.95;;;12.90;82.40;;;;;;5093294;28;20058;-12
2022/10/17 06:43:48;;;;;;;64.97;36.08;;;13.00;82.20;;;;;;5093394;28;20024;-12
2022/10/17 06:46:16;;;;;;;61.53;31.67;;;13.10;82.10;;;;;;5093498;28;20048;-12
2022/10/17 06:48:43;;;;;;;55.25;30.85;;;13.20;82.10;;;;;;5093070;28;20027;-12
2022/10/17 06:51:10;;;;;;;50.47;28.45;;;13.20;82.10;;;;;;5093203;28;20047;-12
2022/10/17 06:53:38;;;;;;;50.53;28.48;;;13.40;82.30;;;;;;5092870;28;20027;-11
2022/10/17 06:56:05;;;;;;;50.50;27.38;;;13.50;82.20;;;;;;5093919;28;20032;-12
2022/10/17 06:58:34;;;;;;;48.20;28.17;;;13.70;82.10;;;;;;5093034;28;20024;-12
2022/10/17 07:01:04;;;;;;;47.72;27.90;;;13.90;82.00;;;;;;5092761;28;20035;-12
2022/10/17 07:03:30;;;;;;;70.78;38.22;;;14.00;81.80;;;;;;5092976;28;20107;-12
2022/10/17 07:05:57;;;;;;;68.97;36.67;;;14.20;81.70;;;;;;5093250;28;20127;-12
2022/10/17 07:08:23;;;;;;;62.92;33.65;;;14.20;81.20;;;;;;5092782;28;20483;-11
2022/10/17 07:10:50;;;;;;;63.65;35.63;;;14.40;81.10;;;;;;5092737;28;20028;-13
2022/10/17 07:13:17;;;;;;;58.92;31.42;;;14.50;81.30;;;;;;5093088;28;20119;-12
2022/10/17 07:15:43;;;;;;;60.92;34.42;;;14.60;81.30;;;;;;5093137;28;20047;-12
2022/10/17 07:18:09;;;;;;;71.28;37.28;;;14.80;81.00;;;;;;5091565;28;20035;-12
2022/10/17 07:20:36;;;;;;;55.50;30.95;;;15.00;80.70;;;;;;5091560;28;20156;-13
2022/10/17 07:23:03;;;;;;;78.22;39.15;;;15.20;80.50;;;;;;5092474;28;20111;-13
2022/10/17 07:25:29;;;;;;;60.33;32.05;;;15.40;80.20;;;;;;5092754;28;20024;-12
2022/10/17 07:27:55;;;;;;;55.78;31.63;;;15.50;80.10;;;;;;5093113;28;20028;-13
2022/10/17 07:30:22;;;;;;;53.35;30.75;;;15.70;80.10;;;;;;5093036;28;20032;-12
2022/10/17 07:32:48;;;;;;;58.97;33.65;;;16.00;79.70;;;;;;5092791;28;20159;-12
2022/10/17 07:35:15;;;;;;;62.58;35.25;;;16.20;79.60;;;;;;5093169;28;20070;-13
2022/10/17 07:37:40;;;;;;;54.72;33.63;;;16.40;79.50;;;;;;5092493;28;20028;-13
2022/10/17 07:40:08;;;;;;;57.38;34.97;;;16.60;79.00;;;;;;5092861;28;20028;-12
2022/10/17 07:42:36;;;;;;;59.17;32.42;;;16.90;78.80;;;;;;5092902;28;20048;-12
2022/10/17 07:45:04;;;;;;;65.85;37.20;;;17.00;78.30;;;;;;5092356;28;20032;-14
2022/10/17 07:47:30;;;;;;;60.75;34.83;;;17.20;78.30;;;;;;5092773;28;20024;-12
2022/10/17 07:49:56;;;;;;;58.80;36.40;;;17.40;78.20;;;;;;5096119;28;20115;-13
2022/10/17 07:52:23;;;;;;;62.42;36.85;;;17.60;77.40;;;;;;5095891;28;20036;-12
2022/10/17 07:54:49;;;;;;;62.90;36.13;;;17.80;77.00;;;;;;5095921;28;20036;-12
2022/10/17 07:57:15;;;;;;;62.40;36.08;;;17.90;76.70;;;;;;5096797;28;20074;-14
2022/10/17 07:59:41;;;;;;;68.40;40.00;;;18.10;76.60;;;;;;5095934;28;20024;-14
2022/10/17 08:02:15;;;;;;;64.45;37.92;;;18.30;76.30;;;;;;5095967;28;20035;-13
2022/10/17 08:04:41;;;;;;;71.15;40.03;;;18.40;76.10;;;;;;5095915;28;20422;-13
2022/10/17 08:07:07;;;;;;;69.35;40.78;;;18.60;75.90;;;;;;5095563;28;20560;-12
2022/10/17 08:09:33;;;;;;;71.68;41.08;;;18.70;75.80;;;;;;5096014;28;20122;-13
2022/10/17 08:11:58;;;;;;;77.05;45.38;;;18.90;75.70;;;;;;5095452;28;20407;-13
2022/10/17 08:14:24;;;;;;;73.13;43.45;;;19.00;75.50;;;;;;5095671;28;20107;-13
2022/10/17 08:16:52;;;;;;;71.50;43.47;;;19.20;75.30;;;;;;5095380;28;20170;-12
2022/10/17 08:19:18;;;;;;;73.60;43.42;;;19.20;74.90;;;;;;5096237;28;20028;-13
2022/10/17 08:21:45;;;;;;;71.75;39.33;;;19.30;74.80;;;;;;5095510;28;20380;-13
2022/10/17 08:24:12;;;;;;;61.42;36.63;;;19.40;74.80;;;;;;5095390;28;20107;-13
2022/10/17 08:26:38;;;;;;;54.97;33.63;;;19.50;74.60;;;;;;5094179;28;20032;-12
2022/10/17 08:29:04;;;;;;;55.45;35.15;;;19.70;74.20;;;;;;5095516;28;20103;-13
2022/10/17 08:31:30;;;;;;;51.40;33.30;;;19.90;73.90;;;;;;5096024;28;20120;-12
2022/10/17 08:33:56;;;;;;;51.17;32.10;;;20.10;73.50;;;;;;5095227;28;20024;-13
2022/10/17 08:36:22;;;;;;;49.17;31.75;;;20.40;72.80;;;;;;5095262;28;20039;-13
2022/10/17 08:38:48;;;;;;;58.75;36.45;;;20.50;72.30;;;;;;5094962;28;20107;-12
2022/10/17 08:41:28;;;;;;;47.97;32.50;;;20.80;71.40;;;;;;5095494;28;20537;-13
2022/10/17 08:44:02;;;;;;;55.00;35.30;;;20.90;71.20;;;;;;5095532;28;20108;-12
2022/10/17 08:46:31;;;;;;;56.97;35.40;;;21.10;70.30;;;;;;5095422;28;20027;-12
2022/10/17 08:49:01;;;;;;;49.70;32.97;;;21.20;70.20;;;;;;5094927;28;20020;-13
2022/10/17 08:51:33;;;;;;;54.13;33.83;;;21.40;69.80;;;;;;5095047;28;20475;-13
2022/10/17 08:54:29;;;;;;;52.22;33.03;;;21.40;69.70;;;;;;5094774;28;20043;-12
2022/10/17 08:56:56;;;;;;;62.75;39.97;;;21.70;69.30;;;;;;5095125;28;20062;-11
2022/10/17 08:59:28;;;;;;;52.97;34.65;;;21.90;67.60;;;;;;5094292;28;20033;-11
2022/10/17 09:02:11;;;;;;;54.58;34.25;;;21.90;68.20;;;;;;5094792;28;20036;-11
2022/10/17 09:04:44;;;;;;;46.33;31.60;;;21.90;68.10;;;;;;5094970;28;20012;-11
2022/10/17 09:07:15;;;;;;;45.03;30.23;;;22.10;68.10;;;;;;5094768;28;20031;-11
2022/10/17 09:09:47;;;;;;;58.63;37.47;;;22.40;67.50;;;;;;5094935;28;20160;-11
2022/10/17 09:12:50;;;;;;;54.38;35.63;;;22.60;65.80;;;;;;5094522;28;20056;-11
2022/10/17 09:15:31;;;;;;;52.20;34.85;;;22.60;63.90;;;;;;5032714;28;20026;-11
2022/10/17 09:18:18;;;;;;;46.08;30.58;;;22.60;64.10;;;;;;5032384;28;20029;-12
2022/10/17 09:21:12;;;;;;;54.85;33.97;;;22.60;65.40;;;;;;5032413;28;20536;-11
2022/10/17 09:24:00;;;;;;;40.42;27.70;;;22.80;64.90;;;;;;5015537;28;20074;-14
2022/10/17 09:26:27;;;;;;;46.42;29.50;;;22.90;64.40;;;;;;5032115;28;20516;-11
2022/10/17 09:28:58;;;;;;;47.88;30.45;;;23.20;64.70;;;;;;5031867;28;20026;-12
2022/10/17 09:31:33;;;;;;;51.53;34.45;;;23.40;64.20;;;;;;5031995;28;20482;-11
2022/10/17 09:34:01;;;;;;;42.78;28.77;;;23.60;63.30;;;;;;5031971;28;20057;-11
2022/10/17 09:36:35;;;;;;;39.45;28.02;;;23.70;63.00;;;;;;5031909;28;20116;-11
2022/10/17 09:39:03;;;;;;;;;;;23.90;63.00;;;;;;5032329;28;20501;-11
2022/10/17 09:41:46;;;;;;;41.70;27.42;;;24.20;62.20;;;;;;5032314;28;20012;-11
2022/10/17 09:44:18;;;;;;;52.70;36.58;;;24.40;62.20;;;;;;5031788;28;20052;-11
2022/10/17 09:47:07;;;;;;;45.45;30.85;;;24.80;61.00;;;;;;5031728;28;20203;-11
2022/10/17 09:49:36;;;;;;;42.30;29.30;;;24.90;60.40;;;;;;5032386;28;20021;-11
2022/10/17 09:52:15;;;;;;;47.30;32.10;;;24.90;59.90;;;;;;5076311;28;20036;-11
2022/10/17 09:54:47;;;;;;;49.42;34.95;;;25.00;60.00;;;;;;5094162;28;20051;-12
2022/10/17 09:57:15;;;;;;;38.37;26.20;;;25.20;59.20;;;;;;5094698;28;20024;-11
2022/10/17 09:59:54;;;;;;;39.50;27.08;;;25.30;59.30;;;;;;5093719;28;20293;-11
2022/10/17 10:02:23;;;;;;;49.08;34.05;;;25.50;58.90;;;;;;5094295;28;20020;-11
2022/10/17 10:05:01;;;;;;;51.15;36.13;;;25.80;57.60;;;;;;5093717;28;20024;-11
2022/10/17 10:07:34;;;;;;;49.72;33.67;;;25.70;56.70;;;;;;5092348;28;20020;-12
2022/10/17 10:10:02;;;;;;;51.85;35.90;;;25.70;56.60;;;;;;5093676;28;20077;-11
2022/10/17 10:12:32;;;;;;;53.65;37.58;;;25.50;56.80;;;;;;5092794;28;20100;-11
2022/10/17 10:14:58;;;;;;;56.70;38.78;;;25.40;56.90;;;;;;5094188;28;20028;-12
2022/10/17 10:17:35;;;;;;;56.80;39.85;;;25.20;56.80;;;;;;5093696;28;20024;-11
2022/10/17 10:20:24;;;;;;;47.45;33.17;;;25.10;57.30;;;;;;5093846;28;20119;-12
2022/10/17 10:23:05;;;;;;;61.30;40.83;;;25.00;58.00;;;;;;5092992;28;20028;-12
2022/10/17 10:25:31;;;;;;;43.75;31.48;;;25.30;57.30;;;;;;5093430;28;20051;-11
2022/10/17 10:27:57;;;;;;;40.67;29.52;;;25.50;57.90;;;;;;5093263;28;20487;-11
2022/10/17 10:30:30;;;;;;;50.50;34.75;;;25.80;57.60;;;;;;5093934;28;20027;-11
2022/10/17 10:32:59;;;;;;;47.05;32.28;;;26.40;55.30;;;;;;5093329;28;20032;-11
2022/10/17 10:35:35;;;;;;;46.55;32.42;;;26.90;53.40;;;;;;5093838;28;20013;-13
2022/10/17 10:38:07;;;;;;;46.45;32.00;;;27.40;51.50;;;;;;5093161;28;20028;-11
2022/10/17 10:41:00;;;;;;;52.37;36.37;;;27.90;51.20;;;;;;5093323;28;20493;-12
2022/10/17 10:43:36;;;;;;;51.42;35.85;;;28.20;50.10;;;;;;5086772;28;20262;-11
2022/10/17 10:46:17;;;;;;;48.63;34.90;;;28.30;50.20;;;;;;5093514;28;20028;-11
2022/10/17 10:48:59;;;;;;;48.17;34.20;;;28.40;49.40;;;;;;5093547;28;20020;-11
2022/10/17 10:51:32;;;;;;;56.08;40.08;;;28.60;49.40;;;;;;5093584;28;20020;-12
2022/10/17 10:54:28;;;;;;;51.58;37.22;;;28.80;49.50;;;;;;5093235;28;20028;-11
2022/10/17 10:57:02;;;;;;;49.17;35.85;;;28.80;49.00;;;;;;5085248;28;20032;-11
2022/10/17 10:59:45;;;;;;;56.03;38.63;;;28.90;48.80;;;;;;5093095;28;20472;-11
2022/10/17 11:02:10;;;;;;;;;;;28.70;48.90;;;;;;5093713;28;20054;-12
2022/10/17 11:04:42;;;;;;;52.53;38.20;;;28.40;49.80;;;;;;5093244;28;19904;-11
2022/10/17 11:07:29;;;;;;;53.95;39.47;;;28.10;49.70;;;;;;5092895;28;20032;-11
2022/10/17 11:10:13;;;;;;;53.95;35.80;;;27.90;50.30;;;;;;5092874;28;20063;-11
2022/10/17 11:13:06;;;;;;;49.55;33.75;;;27.80;51.40;;;;;;5092783;28;20055;-11
2022/10/17 11:15:37;;;;;;;46.00;34.10;;;27.90;50.70;;;;;;5064072;28;20075;-12
2022/10/17 11:18:06;;;;;;;45.80;31.35;;;27.90;50.20;;;;;;5093445;28;20380;-12
2022/10/17 11:20:58;;;;;;;39.85;29.73;;;28.20;50.20;;;;;;5093341;28;20028;-12
2022/10/17 11:23:45;;;;;;;40.80;30.30;;;28.70;49.70;;;;;;5095871;28;20032;-11
2022/10/17 11:26:34;;;;;;;38.60;28.70;;;29.30;47.10;;;;;;5097574;28;20081;-11
2022/10/17 11:29:03;;;;;;;37.55;28.15;;;29.70;47.00;;;;;;5096330;28;20055;-11
2022/10/17 11:31:36;;;;;;;40.53;30.42;;;30.00;46.30;;;;;;5096514;28;20522;-12
2022/10/17 11:34:05;;;;;;;44.58;32.53;;;30.40;45.40;;;;;;5096821;28;20028;-12
2022/10/17 11:36:38;;;;;;;39.72;29.40;;;30.60;44.10;;;;;;5096749;28;20020;-12
2022/10/17 11:39:07;;;;;;;44.17;32.33;;;30.90;44.10;;;;;;5096378;28;20039;-12
2022/10/17 11:42:24;;;;;;;36.53;26.20;;;31.10;43.10;;;;;;5096666;28;20035;-12
2022/10/17 11:44:54;;;;;;;49.00;35.28;;;31.20;43.60;;;;;;5034604;28;20111;-11
2022/10/17 11:47:28;;;;;;;50.92;35.42;;;31.40;43.40;;;;;;5034020;28;20160;-11
2022/10/17 11:50:15;;;;;;;39.78;29.75;;;31.30;43.40;;;;;;5034588;28;20044;-12
2022/10/17 11:52:49;;;;;;;43.45;32.95;;;31.20;43.80;;;;;;5033685;28;20040;-11
2022/10/17 11:55:23;;;;;;;37.78;27.90;;;31.20;42.20;;;;;;5034234;28;20029;-12
2022/10/17 11:58:11;;;;;;;36.03;27.27;;;31.30;42.40;;;;;;5033908;28;20486;-11
2022/10/17 12:01:00;;;;;;;42.53;31.50;;;31.50;42.90;;;;;;5034015;28;20026;-11
2022/10/17 12:04:07;;;;;;;35.05;26.17;;;31.50;42.80;;;;;;5033834;28;20103;-11
2022/10/17 12:06:57;;;;;;;38.20;27.65;;;31.60;42.00;;;;;;5024881;28;20025;-11
2022/10/17 12:09:44;;;;;;;46.13;34.55;;;31.70;41.90;;;;;;5033748;28;20359;-11
2022/10/17 12:12:24;;;;;;;48.78;35.45;;;31.80;41.70;;;;;;5033269;28;20061;-12
2022/10/17 12:14:50;;;;;;;52.58;34.97;;;31.50;41.80;;;;;;5045232;28;20043;-12
2022/10/17 12:17:39;;;;;;;36.80;28.95;;;31.10;42.40;;;;;;5096010;28;20119;-13
2022/10/17 12:20:22;;;;;;;40.60;29.05;;;30.60;41.10;;;;;;5095869;28;20031;-11
2022/10/17 12:22:50;;;;;;;36.40;25.90;;;30.30;43.90;;;;;;5095315;28;20035;-11
2022/10/17 12:25:22;;;;;;;39.00;29.02;;;30.30;44.90;;;;;;5095521;28;20110;-11
2022/10/17 12:27:50;;;;;;;40.60;30.30;;;30.50;44.20;;;;;;5096238;28;20017;-12
2022/10/17 12:30:22;;;;;;;39.85;28.90;;;30.80;43.30;;;;;;5095748;28;20059;-13
2022/10/17 12:33:00;;;;;;;41.00;29.70;;;31.00;43.10;;;;;;5095162;28;20063;-12
2022/10/17 12:35:28;;;;;;;31.40;25.08;;;31.30;42.70;;;;;;5094941;28;20028;-12
2022/10/17 12:37:54;;;;;;;38.63;28.30;;;31.40;42.70;;;;;;5095204;28;20031;-11
2022/10/17 12:40:34;;;;;;;47.35;35.35;;;31.40;42.50;;;;;;5095183;28;20020;-11
2022/10/17 12:43:26;;;;;;;42.75;33.15;;;31.20;41.00;;;;;;5095277;28;20028;-12
2022/10/17 12:45:57;;;;;;;35.42;26.42;;;31.00;42.50;;;;;;5094990;28;20085;-12
2022/10/17 12:48:40;;;;;;;31.58;24.80;;;30.90;43.30;;;;;;5095975;28;20027;-11
2022/10/17 12:51:16;;;;;;;41.63;30.23;;;30.90;43.60;;;;;;5095443;28;20412;-12
2022/10/17 12:54:14;;;;;;;50.38;37.35;;;31.10;42.70;;;;;;5095180;28;20044;-12